sensor_id;sensor_type;location;lat;lon;timestamp;temperature;humidity
19908;DHT22;10116;53.112;7.356;2023-12-29T00:01:13;23.40;91.20
19908;DHT22;10116;53.112;7.356;2023-12-29T00:03:39;23.40;91.50
19908;DHT22;10116;53.112;7.356;2023-12-29T00:06:05;23.40;91.00
19908;DHT22;10116;53.112;7.356;2023-12-29T00:08:31;23.40;91.30
19908;DHT22;10116;53.112;7.356;2023-12-29T00:10:57;23.40;91.40
19908;DHT22;10116;53.112;7.356;2023-12-29T00:13:22;23.40;91.50
19908;DHT22;10116;53.112;7.356;2023-12-29T00:15:52;23.40;91.40
19908;DHT22;10116;53.112;7.356;2023-12-29T00:18:19;23.40;91.30
19908;DHT22;10116;53.112;7.356;2023-12-29T00:20:44;23.40;91.20
19908;DHT22;10116;53.112;7.356;2023-12-29T00:23:10;23.40;91.40
19908;DHT22;10116;53.112;7.356;2023-12-29T00:25:39;23.40;91.50
19908;DHT22;10116;53.112;7.356;2023-12-29T00:28:05;23.40;91.40
19908;DHT22;10116;53.112;7.356;2023-12-29T00:30:31;23.40;92.10
19908;DHT22;10116;53.112;7.356;2023-12-29T00:32:56;23.40;91.70
19908;DHT22;10116;53.112;7.356;2023-12-29T00:35:22;23.40;91.40
19908;DHT22;10116;53.112;7.356;2023-12-29T00:37:49;23.40;92.00
19908;DHT22;10116;53.112;7.356;2023-12-29T00:40:15;23.40;91.80
19908;DHT22;10116;53.112;7.356;2023-12-29T00:42:41;23.40;91.70
19908;DHT22;10116;53.112;7.356;2023-12-29T00:45:07;23.30;91.60
19908;DHT22;10116;53.112;7.356;2023-12-29T00:47:33;23.40;91.90
19908;DHT22;10116;53.112;7.356;2023-12-29T00:50:00;23.40;91.90
19908;DHT22;10116;53.112;7.356;2023-12-29T00:52:26;23.40;91.70
19908;DHT22;10116;53.112;7.356;2023-12-29T00:54:52;23.40;91.90
19908;DHT22;10116;53.112;7.356;2023-12-29T00:57:17;23.30;91.80
19908;DHT22;10116;53.112;7.356;2023-12-29T00:59:43;23.30;92.10
19908;DHT22;10116;53.112;7.356;2023-12-29T01:02:09;23.40;92.20
19908;DHT22;10116;53.112;7.356;2023-12-29T01:04:37;23.40;92.40
19908;DHT22;10116;53.112;7.356;2023-12-29T01:07:04;23.40;91.90
19908;DHT22;10116;53.112;7.356;2023-12-29T01:09:30;23.40;91.80
19908;DHT22;10116;53.112;7.356;2023-12-29T01:11:55;23.40;92.00
19908;DHT22;10116;53.112;7.356;2023-12-29T01:14:21;23.40;91.80
19908;DHT22;10116;53.112;7.356;2023-12-29T01:16:47;23.40;92.00
19908;DHT22;10116;53.112;7.356;2023-12-29T01:19:12;23.40;93.20
19908;DHT22;10116;53.112;7.356;2023-12-29T01:21:38;23.40;92.80
19908;DHT22;10116;53.112;7.356;2023-12-29T01:24:04;23.50;92.70
19908;DHT22;10116;53.112;7.356;2023-12-29T01:26:30;23.50;93.10
19908;DHT22;10116;53.112;7.356;2023-12-29T01:28:56;23.50;93.20
19908;DHT22;10116;53.112;7.356;2023-12-29T01:31:22;23.50;93.20
19908;DHT22;10116;53.112;7.356;2023-12-29T01:33:47;23.50;93.60
19908;DHT22;10116;53.112;7.356;2023-12-29T01:36:19;23.50;93.60
19908;DHT22;10116;53.112;7.356;2023-12-29T01:38:45;23.60;93.70
19908;DHT22;10116;53.112;7.356;2023-12-29T01:41:10;23.50;93.70
19908;DHT22;10116;53.112;7.356;2023-12-29T01:43:36;23.60;93.90
19908;DHT22;10116;53.112;7.356;2023-12-29T01:46:02;23.50;94.40
19908;DHT22;10116;53.112;7.356;2023-12-29T01:48:28;23.60;93.80
19908;DHT22;10116;53.112;7.356;2023-12-29T01:50:54;23.60;95.20
19908;DHT22;10116;53.112;7.356;2023-12-29T01:53:21;23.60;94.00
19908;DHT22;10116;53.112;7.356;2023-12-29T01:55:46;23.60;94.80
19908;DHT22;10116;53.112;7.356;2023-12-29T01:58:13;23.60;94.20
19908;DHT22;10116;53.112;7.356;2023-12-29T02:00:39;23.60;94.00
19908;DHT22;10116;53.112;7.356;2023-12-29T02:03:05;23.60;94.00
19908;DHT22;10116;53.112;7.356;2023-12-29T02:05:32;23.60;93.90
19908;DHT22;10116;53.112;7.356;2023-12-29T02:08:00;23.60;94.20
19908;DHT22;10116;53.112;7.356;2023-12-29T02:10:27;23.60;94.00
19908;DHT22;10116;53.112;7.356;2023-12-29T02:12:53;23.60;94.00
19908;DHT22;10116;53.112;7.356;2023-12-29T02:15:23;23.60;94.10
19908;DHT22;10116;53.112;7.356;2023-12-29T02:17:56;23.60;94.40
19908;DHT22;10116;53.112;7.356;2023-12-29T02:20:24;23.60;94.40
19908;DHT22;10116;53.112;7.356;2023-12-29T02:22:49;23.60;93.90
19908;DHT22;10116;53.112;7.356;2023-12-29T02:25:16;23.60;94.30
19908;DHT22;10116;53.112;7.356;2023-12-29T02:27:49;23.60;94.30
19908;DHT22;10116;53.112;7.356;2023-12-29T02:30:29;23.60;94.60
19908;DHT22;10116;53.112;7.356;2023-12-29T02:33:01;23.60;94.20
19908;DHT22;10116;53.112;7.356;2023-12-29T02:35:34;23.60;94.30
19908;DHT22;10116;53.112;7.356;2023-12-29T02:38:02;23.60;94.40
19908;DHT22;10116;53.112;7.356;2023-12-29T02:40:28;23.60;95.20
19908;DHT22;10116;53.112;7.356;2023-12-29T02:42:53;23.60;94.90
19908;DHT22;10116;53.112;7.356;2023-12-29T02:45:19;23.60;94.30
19908;DHT22;10116;53.112;7.356;2023-12-29T02:47:45;23.60;94.60
19908;DHT22;10116;53.112;7.356;2023-12-29T02:50:11;23.60;94.50
19908;DHT22;10116;53.112;7.356;2023-12-29T02:52:37;23.60;94.50
19908;DHT22;10116;53.112;7.356;2023-12-29T02:55:03;23.60;94.90
19908;DHT22;10116;53.112;7.356;2023-12-29T02:57:29;23.60;94.50
19908;DHT22;10116;53.112;7.356;2023-12-29T02:59:55;23.60;94.90
19908;DHT22;10116;53.112;7.356;2023-12-29T03:02:22;23.60;94.40
19908;DHT22;10116;53.112;7.356;2023-12-29T03:04:47;23.60;94.70
19908;DHT22;10116;53.112;7.356;2023-12-29T03:07:13;23.60;94.70
19908;DHT22;10116;53.112;7.356;2023-12-29T03:09:39;23.60;95.00
19908;DHT22;10116;53.112;7.356;2023-12-29T03:12:05;23.60;94.70
19908;DHT22;10116;53.112;7.356;2023-12-29T03:14:31;23.60;94.70
19908;DHT22;10116;53.112;7.356;2023-12-29T03:16:57;23.60;94.70
19908;DHT22;10116;53.112;7.356;2023-12-29T03:19:23;23.60;94.50
19908;DHT22;10116;53.112;7.356;2023-12-29T03:21:48;23.60;94.60
19908;DHT22;10116;53.112;7.356;2023-12-29T03:24:14;23.60;94.80
19908;DHT22;10116;53.112;7.356;2023-12-29T03:26:40;23.60;94.80
19908;DHT22;10116;53.112;7.356;2023-12-29T03:29:06;23.60;96.40
19908;DHT22;10116;53.112;7.356;2023-12-29T03:31:32;23.60;95.20
19908;DHT22;10116;53.112;7.356;2023-12-29T03:33:57;23.60;95.30
19908;DHT22;10116;53.112;7.356;2023-12-29T03:36:23;23.60;95.00
19908;DHT22;10116;53.112;7.356;2023-12-29T03:38:49;23.60;95.60
19908;DHT22;10116;53.112;7.356;2023-12-29T03:41:14;23.60;95.60
19908;DHT22;10116;53.112;7.356;2023-12-29T03:43:40;23.60;95.40
19908;DHT22;10116;53.112;7.356;2023-12-29T03:46:19;23.60;96.50
19908;DHT22;10116;53.112;7.356;2023-12-29T03:48:45;23.60;95.50
19908;DHT22;10116;53.112;7.356;2023-12-29T03:51:10;23.60;95.40
19908;DHT22;10116;53.112;7.356;2023-12-29T03:53:36;23.60;95.40
19908;DHT22;10116;53.112;7.356;2023-12-29T03:56:06;23.60;95.50
19908;DHT22;10116;53.112;7.356;2023-12-29T03:58:32;23.60;95.50
19908;DHT22;10116;53.112;7.356;2023-12-29T04:00:58;23.60;95.60
19908;DHT22;10116;53.112;7.356;2023-12-29T04:03:23;23.70;95.90
19908;DHT22;10116;53.112;7.356;2023-12-29T04:05:49;23.60;95.70
19908;DHT22;10116;53.112;7.356;2023-12-29T04:08:14;23.70;95.60
19908;DHT22;10116;53.112;7.356;2023-12-29T04:10:40;23.70;95.80
19908;DHT22;10116;53.112;7.356;2023-12-29T04:13:06;23.70;96.10
19908;DHT22;10116;53.112;7.356;2023-12-29T04:15:31;23.60;95.60
19908;DHT22;10116;53.112;7.356;2023-12-29T04:17:57;23.70;95.50
19908;DHT22;10116;53.112;7.356;2023-12-29T04:20:23;23.60;96.10
19908;DHT22;10116;53.112;7.356;2023-12-29T04:22:49;23.70;95.70
19908;DHT22;10116;53.112;7.356;2023-12-29T04:25:15;23.70;96.00
19908;DHT22;10116;53.112;7.356;2023-12-29T04:27:41;23.70;95.80
19908;DHT22;10116;53.112;7.356;2023-12-29T04:30:07;23.70;95.80
19908;DHT22;10116;53.112;7.356;2023-12-29T04:32:33;23.70;96.00
19908;DHT22;10116;53.112;7.356;2023-12-29T04:34:58;23.70;96.70
19908;DHT22;10116;53.112;7.356;2023-12-29T04:37:24;23.70;96.50
19908;DHT22;10116;53.112;7.356;2023-12-29T04:39:50;23.80;96.80
19908;DHT22;10116;53.112;7.356;2023-12-29T04:42:15;23.80;97.00
19908;DHT22;10116;53.112;7.356;2023-12-29T04:44:43;23.80;97.30
19908;DHT22;10116;53.112;7.356;2023-12-29T04:47:09;23.90;97.50
19908;DHT22;10116;53.112;7.356;2023-12-29T04:49:35;23.90;98.00
19908;DHT22;10116;53.112;7.356;2023-12-29T04:52:00;23.90;97.90
19908;DHT22;10116;53.112;7.356;2023-12-29T04:54:27;23.90;97.90
19908;DHT22;10116;53.112;7.356;2023-12-29T04:56:52;23.90;97.80
19908;DHT22;10116;53.112;7.356;2023-12-29T04:59:18;23.90;98.00
19908;DHT22;10116;53.112;7.356;2023-12-29T05:01:43;23.90;97.90
19908;DHT22;10116;53.112;7.356;2023-12-29T05:04:09;23.90;98.40
19908;DHT22;10116;53.112;7.356;2023-12-29T05:06:35;24.00;98.20
19908;DHT22;10116;53.112;7.356;2023-12-29T05:09:00;23.90;97.90
19908;DHT22;10116;53.112;7.356;2023-12-29T05:11:26;23.90;98.10
19908;DHT22;10116;53.112;7.356;2023-12-29T05:13:52;24.00;98.00
19908;DHT22;10116;53.112;7.356;2023-12-29T05:16:17;24.00;97.90
19908;DHT22;10116;53.112;7.356;2023-12-29T05:18:43;23.90;97.90
19908;DHT22;10116;53.112;7.356;2023-12-29T05:21:18;23.90;98.10
19908;DHT22;10116;53.112;7.356;2023-12-29T05:23:47;23.90;97.90
19908;DHT22;10116;53.112;7.356;2023-12-29T05:26:14;23.90;97.80
19908;DHT22;10116;53.112;7.356;2023-12-29T05:28:40;23.90;98.50
19908;DHT22;10116;53.112;7.356;2023-12-29T05:31:05;23.90;98.00
19908;DHT22;10116;53.112;7.356;2023-12-29T05:33:32;23.90;97.80
19908;DHT22;10116;53.112;7.356;2023-12-29T05:35:58;23.90;97.90
19908;DHT22;10116;53.112;7.356;2023-12-29T05:38:23;24.00;97.90
19908;DHT22;10116;53.112;7.356;2023-12-29T05:40:49;24.00;98.50
19908;DHT22;10116;53.112;7.356;2023-12-29T05:43:15;24.00;98.20
19908;DHT22;10116;53.112;7.356;2023-12-29T05:45:41;24.00;98.20
19908;DHT22;10116;53.112;7.356;2023-12-29T05:48:07;24.00;98.20
19908;DHT22;10116;53.112;7.356;2023-12-29T05:50:33;23.90;97.80
19908;DHT22;10116;53.112;7.356;2023-12-29T05:52:58;23.90;97.80
19908;DHT22;10116;53.112;7.356;2023-12-29T05:55:24;23.90;97.90
19908;DHT22;10116;53.112;7.356;2023-12-29T05:57:50;23.90;98.20
19908;DHT22;10116;53.112;7.356;2023-12-29T06:00:15;23.90;98.00
19908;DHT22;10116;53.112;7.356;2023-12-29T06:02:42;23.90;97.80
19908;DHT22;10116;53.112;7.356;2023-12-29T06:05:10;23.90;98.10
19908;DHT22;10116;53.112;7.356;2023-12-29T06:07:36;23.90;98.30
19908;DHT22;10116;53.112;7.356;2023-12-29T06:10:02;23.90;97.80
19908;DHT22;10116;53.112;7.356;2023-12-29T06:12:27;24.00;98.30
19908;DHT22;10116;53.112;7.356;2023-12-29T06:14:53;23.90;97.70
19908;DHT22;10116;53.112;7.356;2023-12-29T06:17:19;23.90;97.90
19908;DHT22;10116;53.112;7.356;2023-12-29T06:19:44;24.00;97.80
19908;DHT22;10116;53.112;7.356;2023-12-29T06:22:10;24.00;98.10
19908;DHT22;10116;53.112;7.356;2023-12-29T06:24:40;24.00;98.40
19908;DHT22;10116;53.112;7.356;2023-12-29T06:27:08;24.00;98.50
19908;DHT22;10116;53.112;7.356;2023-12-29T06:29:34;24.10;98.70
19908;DHT22;10116;53.112;7.356;2023-12-29T06:32:00;24.10;99.30
19908;DHT22;10116;53.112;7.356;2023-12-29T06:34:27;24.10;98.90
19908;DHT22;10116;53.112;7.356;2023-12-29T06:36:52;24.10;99.00
19908;DHT22;10116;53.112;7.356;2023-12-29T06:39:18;24.10;98.90
19908;DHT22;10116;53.112;7.356;2023-12-29T06:41:44;24.10;99.10
19908;DHT22;10116;53.112;7.356;2023-12-29T06:44:09;24.10;99.20
19908;DHT22;10116;53.112;7.356;2023-12-29T06:46:39;24.10;99.60
19908;DHT22;10116;53.112;7.356;2023-12-29T06:49:08;24.10;99.30
19908;DHT22;10116;53.112;7.356;2023-12-29T06:51:34;24.10;99.90
19908;DHT22;10116;53.112;7.356;2023-12-29T06:54:01;24.10;99.50
19908;DHT22;10116;53.112;7.356;2023-12-29T06:56:26;24.10;98.90
19908;DHT22;10116;53.112;7.356;2023-12-29T06:58:52;24.10;98.70
19908;DHT22;10116;53.112;7.356;2023-12-29T07:01:18;24.10;98.30
19908;DHT22;10116;53.112;7.356;2023-12-29T07:03:44;24.00;98.20
19908;DHT22;10116;53.112;7.356;2023-12-29T07:06:10;24.00;98.30
19908;DHT22;10116;53.112;7.356;2023-12-29T07:08:36;24.10;98.60
19908;DHT22;10116;53.112;7.356;2023-12-29T07:11:01;24.00;98.60
19908;DHT22;10116;53.112;7.356;2023-12-29T07:13:28;24.10;98.50
19908;DHT22;10116;53.112;7.356;2023-12-29T07:15:54;24.10;99.90
19908;DHT22;10116;53.112;7.356;2023-12-29T07:18:20;24.10;98.80
19908;DHT22;10116;53.112;7.356;2023-12-29T07:20:45;24.10;98.90
19908;DHT22;10116;53.112;7.356;2023-12-29T07:23:11;24.10;98.90
19908;DHT22;10116;53.112;7.356;2023-12-29T07:25:37;24.10;98.80
19908;DHT22;10116;53.112;7.356;2023-12-29T07:28:02;24.10;98.70
19908;DHT22;10116;53.112;7.356;2023-12-29T07:30:28;24.10;98.70
19908;DHT22;10116;53.112;7.356;2023-12-29T07:32:54;24.10;99.40
19908;DHT22;10116;53.112;7.356;2023-12-29T07:35:19;24.10;99.10
19908;DHT22;10116;53.112;7.356;2023-12-29T07:37:45;24.10;99.50
19908;DHT22;10116;53.112;7.356;2023-12-29T07:40:12;24.10;98.90
19908;DHT22;10116;53.112;7.356;2023-12-29T07:42:39;24.10;98.80
19908;DHT22;10116;53.112;7.356;2023-12-29T07:45:06;24.00;98.70
19908;DHT22;10116;53.112;7.356;2023-12-29T07:47:32;24.00;99.20
19908;DHT22;10116;53.112;7.356;2023-12-29T07:49:58;24.00;98.60
19908;DHT22;10116;53.112;7.356;2023-12-29T07:52:23;24.00;98.80
19908;DHT22;10116;53.112;7.356;2023-12-29T07:54:49;24.00;98.90
19908;DHT22;10116;53.112;7.356;2023-12-29T07:57:15;24.10;99.00
19908;DHT22;10116;53.112;7.356;2023-12-29T07:59:40;24.00;99.00
19908;DHT22;10116;53.112;7.356;2023-12-29T08:02:06;24.00;99.40
19908;DHT22;10116;53.112;7.356;2023-12-29T08:04:32;24.10;99.70
19908;DHT22;10116;53.112;7.356;2023-12-29T08:06:58;24.00;99.30
19908;DHT22;10116;53.112;7.356;2023-12-29T08:09:24;24.00;98.60
19908;DHT22;10116;53.112;7.356;2023-12-29T08:11:50;23.90;98.70
19908;DHT22;10116;53.112;7.356;2023-12-29T08:14:16;23.90;98.20
19908;DHT22;10116;53.112;7.356;2023-12-29T08:16:41;23.90;98.50
19908;DHT22;10116;53.112;7.356;2023-12-29T08:19:07;23.90;98.40
19908;DHT22;10116;53.112;7.356;2023-12-29T08:21:33;23.90;98.60
19908;DHT22;10116;53.112;7.356;2023-12-29T08:23:59;23.90;98.50
19908;DHT22;10116;53.112;7.356;2023-12-29T08:26:24;24.00;99.00
19908;DHT22;10116;53.112;7.356;2023-12-29T08:28:51;24.00;99.30
19908;DHT22;10116;53.112;7.356;2023-12-29T08:31:18;24.00;99.40
19908;DHT22;10116;53.112;7.356;2023-12-29T08:33:45;24.00;99.80
19908;DHT22;10116;53.112;7.356;2023-12-29T08:36:12;24.00;99.90
19908;DHT22;10116;53.112;7.356;2023-12-29T08:38:38;23.50;96.70
19908;DHT22;10116;53.112;7.356;2023-12-29T08:41:04;22.90;92.70
19908;DHT22;10116;53.112;7.356;2023-12-29T08:43:30;22.40;85.00
19908;DHT22;10116;53.112;7.356;2023-12-29T08:45:56;22.40;82.90
19908;DHT22;10116;53.112;7.356;2023-12-29T08:48:22;22.50;85.90
19908;DHT22;10116;53.112;7.356;2023-12-29T08:50:48;22.50;85.70
19908;DHT22;10116;53.112;7.356;2023-12-29T08:53:14;22.60;87.30
19908;DHT22;10116;53.112;7.356;2023-12-29T08:55:41;22.70;90.10
19908;DHT22;10116;53.112;7.356;2023-12-29T08:58:07;22.80;91.10
19908;DHT22;10116;53.112;7.356;2023-12-29T09:00:33;22.90;91.50
19908;DHT22;10116;53.112;7.356;2023-12-29T09:02:59;22.90;91.70
19908;DHT22;10116;53.112;7.356;2023-12-29T09:05:25;23.00;92.30
19908;DHT22;10116;53.112;7.356;2023-12-29T09:07:50;23.00;93.30
19908;DHT22;10116;53.112;7.356;2023-12-29T09:10:16;23.10;93.60
19908;DHT22;10116;53.112;7.356;2023-12-29T09:12:43;23.20;93.70
19908;DHT22;10116;53.112;7.356;2023-12-29T09:15:09;23.20;94.10
19908;DHT22;10116;53.112;7.356;2023-12-29T09:17:35;23.20;94.30
19908;DHT22;10116;53.112;7.356;2023-12-29T09:20:01;23.20;94.80
19908;DHT22;10116;53.112;7.356;2023-12-29T09:22:27;23.30;94.90
19908;DHT22;10116;53.112;7.356;2023-12-29T09:24:54;23.30;95.00
19908;DHT22;10116;53.112;7.356;2023-12-29T09:27:21;23.30;95.30
19908;DHT22;10116;53.112;7.356;2023-12-29T09:29:46;23.40;99.90
19908;DHT22;10116;53.112;7.356;2023-12-29T09:32:12;23.40;96.20
19908;DHT22;10116;53.112;7.356;2023-12-29T09:34:38;23.40;96.10
19908;DHT22;10116;53.112;7.356;2023-12-29T09:37:04;23.40;96.10
19908;DHT22;10116;53.112;7.356;2023-12-29T09:39:29;23.40;96.20
19908;DHT22;10116;53.112;7.356;2023-12-29T09:41:59;23.40;97.20
19908;DHT22;10116;53.112;7.356;2023-12-29T09:44:27;23.40;96.60
19908;DHT22;10116;53.112;7.356;2023-12-29T09:47:01;23.50;96.60
19908;DHT22;10116;53.112;7.356;2023-12-29T09:49:35;23.40;97.30
19908;DHT22;10116;53.112;7.356;2023-12-29T09:52:02;23.40;97.00
19908;DHT22;10116;53.112;7.356;2023-12-29T09:54:29;23.40;96.80
19908;DHT22;10116;53.112;7.356;2023-12-29T09:56:55;23.50;97.10
19908;DHT22;10116;53.112;7.356;2023-12-29T09:59:21;23.50;97.30
19908;DHT22;10116;53.112;7.356;2023-12-29T10:01:48;23.50;97.40
19908;DHT22;10116;53.112;7.356;2023-12-29T10:04:14;23.50;97.90
19908;DHT22;10116;53.112;7.356;2023-12-29T10:06:42;23.50;97.90
19908;DHT22;10116;53.112;7.356;2023-12-29T10:09:12;23.50;98.10
19908;DHT22;10116;53.112;7.356;2023-12-29T10:11:40;23.50;98.10
19908;DHT22;10116;53.112;7.356;2023-12-29T10:14:26;23.50;99.10
19908;DHT22;10116;53.112;7.356;2023-12-29T10:17:02;23.50;98.20
19908;DHT22;10116;53.112;7.356;2023-12-29T10:19:45;23.60;98.50
19908;DHT22;10116;53.112;7.356;2023-12-29T10:22:24;23.50;98.20
19908;DHT22;10116;53.112;7.356;2023-12-29T10:24:51;23.50;98.70
19908;DHT22;10116;53.112;7.356;2023-12-29T10:27:17;23.60;98.30
19908;DHT22;10116;53.112;7.356;2023-12-29T10:29:43;23.60;98.70
19908;DHT22;10116;53.112;7.356;2023-12-29T10:32:09;23.60;98.20
19908;DHT22;10116;53.112;7.356;2023-12-29T10:34:35;23.60;98.90
19908;DHT22;10116;53.112;7.356;2023-12-29T10:37:02;23.60;98.40
19908;DHT22;10116;53.112;7.356;2023-12-29T10:39:55;23.60;98.50
19908;DHT22;10116;53.112;7.356;2023-12-29T10:42:21;23.60;98.60
19908;DHT22;10116;53.112;7.356;2023-12-29T10:44:46;23.60;98.60
19908;DHT22;10116;53.112;7.356;2023-12-29T10:47:12;23.60;98.70
19908;DHT22;10116;53.112;7.356;2023-12-29T10:49:39;23.60;98.60
19908;DHT22;10116;53.112;7.356;2023-12-29T10:52:15;23.60;98.60
19908;DHT22;10116;53.112;7.356;2023-12-29T10:54:42;23.60;98.60
19908;DHT22;10116;53.112;7.356;2023-12-29T10:57:10;23.60;98.50
19908;DHT22;10116;53.112;7.356;2023-12-29T10:59:35;23.60;98.80
19908;DHT22;10116;53.112;7.356;2023-12-29T11:02:02;23.60;98.70
19908;DHT22;10116;53.112;7.356;2023-12-29T11:04:30;23.60;98.30
19908;DHT22;10116;53.112;7.356;2023-12-29T11:06:56;23.50;98.60
19908;DHT22;10116;53.112;7.356;2023-12-29T11:09:32;23.60;98.50
19908;DHT22;10116;53.112;7.356;2023-12-29T11:12:03;23.60;99.20
19908;DHT22;10116;53.112;7.356;2023-12-29T11:14:30;23.70;99.50
19908;DHT22;10116;53.112;7.356;2023-12-29T11:16:57;23.70;99.60
19908;DHT22;10116;53.112;7.356;2023-12-29T11:19:24;23.80;99.90
19908;DHT22;10116;53.112;7.356;2023-12-29T11:21:52;23.80;99.90
19908;DHT22;10116;53.112;7.356;2023-12-29T11:24:19;23.80;99.90
19908;DHT22;10116;53.112;7.356;2023-12-29T11:26:44;23.90;99.90
19908;DHT22;10116;53.112;7.356;2023-12-29T11:29:11;23.80;99.90
19908;DHT22;10116;53.112;7.356;2023-12-29T11:31:38;23.90;99.90
19908;DHT22;10116;53.112;7.356;2023-12-29T11:34:25;23.90;99.90
19908;DHT22;10116;53.112;7.356;2023-12-29T11:37:01;23.90;99.90
19908;DHT22;10116;53.112;7.356;2023-12-29T11:39:42;23.90;99.90
19908;DHT22;10116;53.112;7.356;2023-12-29T11:42:34;23.90;99.90
19908;DHT22;10116;53.112;7.356;2023-12-29T11:45:33;23.90;99.90
19908;DHT22;10116;53.112;7.356;2023-12-29T11:48:02;23.90;99.90
19908;DHT22;10116;53.112;7.356;2023-12-29T11:50:33;23.90;99.90
19908;DHT22;10116;53.112;7.356;2023-12-29T11:53:00;23.90;99.90
19908;DHT22;10116;53.112;7.356;2023-12-29T11:55:30;23.90;99.90
19908;DHT22;10116;53.112;7.356;2023-12-29T11:57:57;23.90;99.90
19908;DHT22;10116;53.112;7.356;2023-12-29T12:00:44;23.90;99.90
19908;DHT22;10116;53.112;7.356;2023-12-29T12:05:50;23.90;99.90
19908;DHT22;10116;53.112;7.356;2023-12-29T12:08:31;23.90;99.90
19908;DHT22;10116;53.112;7.356;2023-12-29T12:13:58;23.90;99.90
19908;DHT22;10116;53.112;7.356;2023-12-29T12:16:50;23.90;99.90
19908;DHT22;10116;53.112;7.356;2023-12-29T12:19:19;23.90;99.90
19908;DHT22;10116;53.112;7.356;2023-12-29T12:21:49;23.90;99.90
19908;DHT22;10116;53.112;7.356;2023-12-29T12:24:18;23.90;99.90
19908;DHT22;10116;53.112;7.356;2023-12-29T12:26:45;23.90;99.90
19908;DHT22;10116;53.112;7.356;2023-12-29T12:29:13;23.90;99.90
19908;DHT22;10116;53.112;7.356;2023-12-29T12:34:20;23.90;99.90
19908;DHT22;10116;53.112;7.356;2023-12-29T12:36:52;23.90;99.90
19908;DHT22;10116;53.112;7.356;2023-12-29T12:39:19;23.90;99.90
19908;DHT22;10116;53.112;7.356;2023-12-29T12:41:45;23.90;99.90
19908;DHT22;10116;53.112;7.356;2023-12-29T12:44:12;23.90;99.90
19908;DHT22;10116;53.112;7.356;2023-12-29T12:49:10;24.00;99.90
19908;DHT22;10116;53.112;7.356;2023-12-29T12:51:36;24.10;99.90
19908;DHT22;10116;53.112;7.356;2023-12-29T12:54:02;24.10;99.90
19908;DHT22;10116;53.112;7.356;2023-12-29T12:56:28;24.10;99.90
19908;DHT22;10116;53.112;7.356;2023-12-29T12:58:57;24.20;99.90
19908;DHT22;10116;53.112;7.356;2023-12-29T13:01:24;24.20;99.90
19908;DHT22;10116;53.112;7.356;2023-12-29T13:03:50;24.20;99.90
19908;DHT22;10116;53.112;7.356;2023-12-29T13:06:16;24.20;99.90
19908;DHT22;10116;53.112;7.356;2023-12-29T13:08:43;24.20;99.90
19908;DHT22;10116;53.112;7.356;2023-12-29T13:11:09;24.10;99.90
19908;DHT22;10116;53.112;7.356;2023-12-29T13:13:41;24.10;99.90
19908;DHT22;10116;53.112;7.356;2023-12-29T13:16:08;24.10;99.90
19908;DHT22;10116;53.112;7.356;2023-12-29T13:18:34;24.10;99.90
19908;DHT22;10116;53.112;7.356;2023-12-29T13:21:01;24.10;99.90
19908;DHT22;10116;53.112;7.356;2023-12-29T13:23:28;24.10;99.90
19908;DHT22;10116;53.112;7.356;2023-12-29T13:26:04;24.10;99.90
19908;DHT22;10116;53.112;7.356;2023-12-29T13:28:32;24.10;99.90
19908;DHT22;10116;53.112;7.356;2023-12-29T13:30:58;24.10;99.90
19908;DHT22;10116;53.112;7.356;2023-12-29T13:33:37;24.10;99.60
19908;DHT22;10116;53.112;7.356;2023-12-29T13:36:21;24.10;99.70
19908;DHT22;10116;53.112;7.356;2023-12-29T13:38:57;24.10;99.60
19908;DHT22;10116;53.112;7.356;2023-12-29T13:41:25;24.00;99.40
19908;DHT22;10116;53.112;7.356;2023-12-29T13:43:54;24.00;99.20
19908;DHT22;10116;53.112;7.356;2023-12-29T13:46:20;24.00;98.90
19908;DHT22;10116;53.112;7.356;2023-12-29T13:48:47;24.00;98.90
19908;DHT22;10116;53.112;7.356;2023-12-29T13:51:16;24.00;99.50
19908;DHT22;10116;53.112;7.356;2023-12-29T13:53:42;24.00;98.70
19908;DHT22;10116;53.112;7.356;2023-12-29T13:56:08;24.00;98.80
19908;DHT22;10116;53.112;7.356;2023-12-29T13:58:35;24.10;98.80
19908;DHT22;10116;53.112;7.356;2023-12-29T14:01:01;24.00;99.10
19908;DHT22;10116;53.112;7.356;2023-12-29T14:03:40;24.10;99.00
19908;DHT22;10116;53.112;7.356;2023-12-29T14:06:12;24.10;99.10
19908;DHT22;10116;53.112;7.356;2023-12-29T14:08:40;24.10;99.10
19908;DHT22;10116;53.112;7.356;2023-12-29T14:11:09;24.10;99.70
19908;DHT22;10116;53.112;7.356;2023-12-29T14:13:40;24.10;99.10
19908;DHT22;10116;53.112;7.356;2023-12-29T14:16:06;24.10;99.30
19908;DHT22;10116;53.112;7.356;2023-12-29T14:24:13;24.20;99.90
19908;DHT22;10116;53.112;7.356;2023-12-29T14:29:20;24.30;99.90
19908;DHT22;10116;53.112;7.356;2023-12-29T14:31:46;24.30;99.90
19908;DHT22;10116;53.112;7.356;2023-12-29T14:34:13;24.30;99.90
19908;DHT22;10116;53.112;7.356;2023-12-29T14:36:41;24.40;99.90
19908;DHT22;10116;53.112;7.356;2023-12-29T14:39:07;24.40;99.90
19908;DHT22;10116;53.112;7.356;2023-12-29T14:41:35;24.40;99.90
19908;DHT22;10116;53.112;7.356;2023-12-29T14:44:01;24.40;99.90
19908;DHT22;10116;53.112;7.356;2023-12-29T14:46:27;24.40;99.90
19908;DHT22;10116;53.112;7.356;2023-12-29T14:48:54;24.40;99.90
19908;DHT22;10116;53.112;7.356;2023-12-29T14:51:22;24.40;99.90
19908;DHT22;10116;53.112;7.356;2023-12-29T14:53:49;24.50;99.90
19908;DHT22;10116;53.112;7.356;2023-12-29T14:56:15;24.40;99.90
19908;DHT22;10116;53.112;7.356;2023-12-29T14:58:41;24.40;99.90
19908;DHT22;10116;53.112;7.356;2023-12-29T15:01:07;24.50;99.90
19908;DHT22;10116;53.112;7.356;2023-12-29T15:03:34;24.50;99.90
19908;DHT22;10116;53.112;7.356;2023-12-29T15:06:00;24.50;99.90
19908;DHT22;10116;53.112;7.356;2023-12-29T15:08:26;24.50;99.90
19908;DHT22;10116;53.112;7.356;2023-12-29T15:10:54;24.50;99.90
19908;DHT22;10116;53.112;7.356;2023-12-29T15:13:20;24.50;99.90
19908;DHT22;10116;53.112;7.356;2023-12-29T15:15:46;24.50;99.90
19908;DHT22;10116;53.112;7.356;2023-12-29T15:18:11;24.40;99.90
19908;DHT22;10116;53.112;7.356;2023-12-29T15:20:37;24.50;99.90
19908;DHT22;10116;53.112;7.356;2023-12-29T15:23:03;24.50;99.90
19908;DHT22;10116;53.112;7.356;2023-12-29T15:25:28;24.50;99.90
19908;DHT22;10116;53.112;7.356;2023-12-29T15:27:54;24.40;99.90
19908;DHT22;10116;53.112;7.356;2023-12-29T15:30:20;24.40;99.90
19908;DHT22;10116;53.112;7.356;2023-12-29T15:32:46;24.40;99.90
19908;DHT22;10116;53.112;7.356;2023-12-29T15:35:11;24.40;99.90
19908;DHT22;10116;53.112;7.356;2023-12-29T15:37:37;24.40;99.90
19908;DHT22;10116;53.112;7.356;2023-12-29T15:40:03;24.20;98.00
19908;DHT22;10116;53.112;7.356;2023-12-29T15:42:29;24.20;97.50
19908;DHT22;10116;53.112;7.356;2023-12-29T15:44:55;24.20;97.40
19908;DHT22;10116;53.112;7.356;2023-12-29T15:47:21;24.20;97.40
19908;DHT22;10116;53.112;7.356;2023-12-29T15:49:46;24.20;97.70